Time;durP1;ratioP1;P1;durP2;ratioP2;P2;SDS_P1;SDS_P2;PMS_P1;PMS_P2;Temp;Humidity;BMP_temperature;BMP_pressure;BME280_temperature;BME280_humidity;BME280_pressure;Samples;Min_cycle;Max_cycle;Signal;HPM_P1;HPM_P2
2022/01/13 00:01:44;;;;;;;66.65;34.30;;;;;;;;;;5117913;28;20276;-66
2022/01/13 00:04:15;;;;;;;53.78;31.70;;;;;;;;;;5117876;28;20223;-66
2022/01/13 00:06:42;;;;;;;47.85;24.23;;;;;;;;;;5117476;28;20207;-67
2022/01/13 00:09:10;;;;;;;57.60;28.63;;;;;;;;;;5117837;28;20201;-67
2022/01/13 00:11:37;;;;;;;57.10;29.95;;;;;;;;;;5117469;28;20284;-66
2022/01/13 00:14:22;;;;;;;56.40;29.85;;;;;;;;;;5117742;28;20190;-66
2022/01/13 00:17:09;;;;;;;46.70;23.80;;;;;;;;;;5117693;28;20221;-66
2022/01/13 00:19:50;;;;;;;53.13;26.80;;;;;;;;;;5118160;28;20180;-65
2022/01/13 00:22:23;;;;;;;53.95;27.17;;;;;;;;;;5117934;28;20508;-66
2022/01/13 00:24:54;;;;;;;52.90;29.25;;;;;;;;;;5117700;28;20250;-65
2022/01/13 00:27:24;;;;;;;48.78;27.40;;;;;;;;;;5117099;28;20212;-65
2022/01/13 00:29:51;;;;;;;52.47;27.25;;;;;;;;;;5117378;28;20193;-65
2022/01/13 00:32:20;;;;;;;54.67;26.90;;;;;;;;;;5117247;28;20677;-65
2022/01/13 00:34:49;;;;;;;50.08;26.33;;;;;;;;;;5117332;28;20278;-66
2022/01/13 00:37:16;;;;;;;48.42;22.80;;;;;;;;;;5116998;28;20708;-66
2022/01/13 00:39:43;;;;;;;59.55;25.75;;;;;;;;;;5117334;28;20283;-66
2022/01/13 00:42:11;;;;;;;40.30;18.77;;;;;;;;;;5117289;28;20278;-66
2022/01/13 00:44:38;;;;;;;51.85;26.88;;;;;;;;;;5116791;28;20280;-67
2022/01/13 00:47:08;;;;;;;56.05;28.90;;;;;;;;;;5116675;28;20209;-66
2022/01/13 00:49:36;;;;;;;60.58;31.02;;;;;;;;;;5117199;28;20554;-65
2022/01/13 00:52:05;;;;;;;59.42;29.02;;;;;;;;;;5115318;28;20644;-66
2022/01/13 00:54:34;;;;;;;52.33;27.25;;;;;;;;;;5116993;28;20288;-67
2022/01/13 00:57:01;;;;;;;40.83;21.08;;;;;;;;;;5116896;28;20238;-66
2022/01/13 00:59:28;;;;;;;66.65;23.35;;;;;;;;;;5116534;28;20196;-66
2022/01/13 01:01:55;;;;;;;60.42;26.42;;;;;;;;;;5117064;28;20280;-67
2022/01/13 01:04:24;;;;;;;52.90;27.52;;;;;;;;;;5116704;28;20277;-65
2022/01/13 01:06:52;;;;;;;77.15;31.33;;;;;;;;;;5116329;28;20210;-66
2022/01/13 01:09:29;;;;;;;62.88;30.05;;;;;;;;;;5116724;28;20548;-66
2022/01/13 01:11:57;;;;;;;60.33;27.95;;;;;;;;;;5116856;28;20182;-66
2022/01/13 01:14:25;;;;;;;63.20;28.23;;;;;;;;;;5116345;28;20287;-66
2022/01/13 01:16:52;;;;;;;74.63;30.80;;;;;;;;;;5116508;28;20325;-67
2022/01/13 01:19:26;;;;;;;59.60;29.25;;;;;;;;;;5116107;28;20241;-66
2022/01/13 01:22:17;;;;;;;81.30;31.55;;;;;;;;;;5116853;28;20181;-67
2022/01/13 01:27:34;;;;;;;49.13;21.45;;;;;;;;;;5116370;28;20516;-66
2022/01/13 01:30:07;;;;;;;73.80;31.67;;;;;;;;;;5116033;28;20187;-65
2022/01/13 01:32:37;;;;;;;79.03;33.20;;;;;;;;;;5116844;28;20239;-65
2022/01/13 01:35:12;;;;;;;63.63;29.52;;;;;;;;;;5115912;28;20289;-65
2022/01/13 01:37:39;;;;;;;72.47;32.72;;;;;;;;;;5116694;28;20189;-66
2022/01/13 01:40:09;;;;;;;66.72;29.25;;;;;;;;;;5116615;28;20193;-65
2022/01/13 01:42:36;;;;;;;68.70;30.02;;;;;;;;;;5115772;28;20229;-66
2022/01/13 01:45:04;;;;;;;65.05;29.15;;;;;;;;;;5115642;28;20652;-66
2022/01/13 01:47:32;;;;;;;68.82;29.42;;;;;;;;;;5115526;28;20302;-66
2022/01/13 01:50:08;;;;;;;73.13;32.25;;;;;;;;;;5116329;28;20190;-65
2022/01/13 01:52:36;;;;;;;67.45;29.92;;;;;;;;;;5116062;28;20177;-66
2022/01/13 01:55:04;;;;;;;68.72;30.42;;;;;;;;;;5115957;28;20279;-65
2022/01/13 01:57:32;;;;;;;65.13;28.80;;;;;;;;;;5115547;28;20239;-66
2022/01/13 02:00:01;;;;;;;74.60;32.83;;;;;;;;;;5115640;28;20285;-66
2022/01/13 02:02:29;;;;;;;77.30;30.95;;;;;;;;;;5115759;28;20217;-65
2022/01/13 02:04:57;;;;;;;73.32;31.80;;;;;;;;;;5115340;28;20223;-65
2022/01/13 02:07:24;;;;;;;62.80;30.52;;;;;;;;;;5115446;28;20209;-65
2022/01/13 02:09:53;;;;;;;68.82;29.83;;;;;;;;;;5115628;28;20191;-65
2022/01/13 02:12:32;;;;;;;80.30;30.80;;;;;;;;;;5115465;28;20193;-65
2022/01/13 02:15:26;;;;;;;70.75;30.23;;;;;;;;;;5116596;28;20522;-65
2022/01/13 02:17:54;;;;;;;71.47;32.42;;;;;;;;;;5115010;28;20265;-65
2022/01/13 02:20:23;;;;;;;77.15;33.15;;;;;;;;;;5115443;28;20221;-66
2022/01/13 02:22:50;;;;;;;69.95;32.10;;;;;;;;;;5115033;28;20194;-66
2022/01/13 02:25:18;;;;;;;78.70;33.40;;;;;;;;;;5115539;28;20296;-65
2022/01/13 02:27:45;;;;;;;76.88;31.83;;;;;;;;;;5115052;28;20212;-65
2022/01/13 02:30:13;;;;;;;62.17;30.63;;;;;;;;;;5115515;28;20284;-66
2022/01/13 02:32:40;;;;;;;68.15;31.73;;;;;;;;;;5115460;28;20388;-66
2022/01/13 02:35:08;;;;;;;88.50;31.10;;;;;;;;;;5115654;28;20521;-67
2022/01/13 02:37:37;;;;;;;82.90;31.27;;;;;;;;;;5115896;28;20234;-66
2022/01/13 02:40:05;;;;;;;83.03;33.53;;;;;;;;;;5115616;28;20276;-66
2022/01/13 02:42:33;;;;;;;63.28;29.02;;;;;;;;;;5115710;28;20293;-66
2022/01/13 02:45:14;;;;;;;81.15;32.45;;;;;;;;;;5115391;28;20189;-65
2022/01/13 02:48:00;;;;;;;87.53;31.30;;;;;;;;;;5115712;28;20212;-66
2022/01/13 02:50:27;;;;;;;75.03;32.03;;;;;;;;;;5114555;28;20178;-66
2022/01/13 02:52:56;;;;;;;78.15;32.15;;;;;;;;;;5116162;28;20281;-66
2022/01/13 02:55:25;;;;;;;68.55;30.70;;;;;;;;;;5115909;28;20283;-65
2022/01/13 02:57:52;;;;;;;69.53;29.67;;;;;;;;;;5116832;28;20276;-66
2022/01/13 03:00:19;;;;;;;82.93;32.63;;;;;;;;;;5117918;28;20190;-67
2022/01/13 03:02:48;;;;;;;68.25;26.98;;;;;;;;;;5114179;28;20233;-65
2022/01/13 03:05:16;;;;;;;83.90;29.52;;;;;;;;;;5114289;28;20177;-65
2022/01/13 03:07:43;;;;;;;73.25;31.40;;;;;;;;;;5114331;28;20224;-66
2022/01/13 03:10:13;;;;;;;68.13;28.33;;;;;;;;;;5114783;28;20277;-66
2022/01/13 03:12:43;;;;;;;88.85;29.58;;;;;;;;;;5114064;28;20198;-66
2022/01/13 03:15:11;;;;;;;94.13;30.98;;;;;;;;;;5113573;28;20276;-66
2022/01/13 03:17:38;;;;;;;85.07;29.27;;;;;;;;;;5113945;28;20284;-66
2022/01/13 03:20:06;;;;;;;82.13;29.52;;;;;;;;;;5114006;28;20222;-66
2022/01/13 03:22:33;;;;;;;84.18;32.55;;;;;;;;;;5114290;28;20277;-67
2022/01/13 03:25:03;;;;;;;73.85;32.58;;;;;;;;;;5113954;28;20276;-67
2022/01/13 03:27:34;;;;;;;76.95;32.95;;;;;;;;;;5113844;28;20217;-66
2022/01/13 03:30:05;;;;;;;92.78;35.42;;;;;;;;;;5114272;28;20214;-66
2022/01/13 03:32:32;;;;;;;75.25;32.58;;;;;;;;;;5113839;28;20196;-66
2022/01/13 03:34:59;;;;;;;76.60;33.45;;;;;;;;;;5114187;28;20523;-66
2022/01/13 03:37:27;;;;;;;79.90;30.70;;;;;;;;;;5114632;28;20193;-67
2022/01/13 03:39:54;;;;;;;78.57;32.78;;;;;;;;;;5114126;28;20281;-66
2022/01/13 03:42:21;;;;;;;90.57;31.35;;;;;;;;;;5113763;28;20193;-66
2022/01/13 03:44:50;;;;;;;95.07;37.22;;;;;;;;;;5114206;28;20280;-66
2022/01/13 03:47:18;;;;;;;104.13;37.90;;;;;;;;;;5114457;28;20216;-66
2022/01/13 03:49:45;;;;;;;91.05;32.03;;;;;;;;;;5114032;28;20193;-66
2022/01/13 03:52:33;;;;;;;93.72;34.20;;;;;;;;;;5114085;28;20278;-65
2022/01/13 03:55:15;;;;;;;85.70;33.90;;;;;;;;;;5114794;28;20513;-66
2022/01/13 03:58:08;;;;;;;80.72;30.35;;;;;;;;;;5115650;28;20188;-66
2022/01/13 04:01:09;;;;;;;87.82;33.58;;;;;;;;;;5115373;28;20250;-65
2022/01/13 04:03:37;;;;;;;109.65;35.85;;;;;;;;;;5113931;28;20309;-66
2022/01/13 04:06:08;;;;;;;102.00;33.95;;;;;;;;;;5113626;28;20230;-66
2022/01/13 04:08:36;;;;;;;101.63;34.20;;;;;;;;;;5113914;28;20285;-65
2022/01/13 04:11:14;;;;;;;103.13;36.13;;;;;;;;;;5113510;28;20195;-66
2022/01/13 04:13:49;;;;;;;93.72;30.20;;;;;;;;;;5114266;28;20181;-66
2022/01/13 04:16:18;;;;;;;92.88;35.72;;;;;;;;;;5114345;28;20177;-65
2022/01/13 04:18:48;;;;;;;112.57;32.67;;;;;;;;;;5113753;28;20193;-65
2022/01/13 04:21:15;;;;;;;91.60;33.92;;;;;;;;;;5113554;28;20194;-66
2022/01/13 04:23:43;;;;;;;102.22;34.42;;;;;;;;;;5113481;28;20187;-66
2022/01/13 04:26:10;;;;;;;106.95;34.35;;;;;;;;;;5114335;28;20201;-65
2022/01/13 04:28:40;;;;;;;114.05;39.53;;;;;;;;;;5117678;28;20730;-66
2022/01/13 04:31:07;;;;;;;113.03;36.97;;;;;;;;;;5117485;28;20179;-66
2022/01/13 04:33:35;;;;;;;115.35;40.03;;;;;;;;;;5117955;28;20642;-65
2022/01/13 04:36:05;;;;;;;109.53;33.15;;;;;;;;;;5117462;28;20288;-65
2022/01/13 04:38:32;;;;;;;91.57;32.08;;;;;;;;;;5117916;28;20288;-65
2022/01/13 04:41:02;;;;;;;104.72;34.88;;;;;;;;;;5117848;28;20643;-66
2022/01/13 04:43:31;;;;;;;86.72;31.80;;;;;;;;;;5118096;28;20228;-66
2022/01/13 04:45:59;;;;;;;107.65;39.17;;;;;;;;;;5118358;28;20281;-65
2022/01/13 04:48:26;;;;;;;110.75;39.60;;;;;;;;;;5117900;28;20300;-67
2022/01/13 04:50:53;;;;;;;130.05;39.22;;;;;;;;;;5118163;28;20278;-65
2022/01/13 04:53:22;;;;;;;104.38;37.13;;;;;;;;;;5118039;28;20197;-67
2022/01/13 04:55:52;;;;;;;127.35;39.40;;;;;;;;;;5118531;28;20202;-67
2022/01/13 04:58:21;;;;;;;102.88;36.05;;;;;;;;;;5118224;28;20185;-67
2022/01/13 05:00:49;;;;;;;110.40;37.28;;;;;;;;;;5118714;28;20189;-66
2022/01/13 05:03:16;;;;;;;137.38;39.28;;;;;;;;;;5118425;28;20318;-67
2022/01/13 05:05:43;;;;;;;104.18;36.83;;;;;;;;;;5118290;28;20221;-67
2022/01/13 05:08:10;;;;;;;126.05;41.58;;;;;;;;;;5117968;28;20307;-66
2022/01/13 05:10:39;;;;;;;128.05;40.13;;;;;;;;;;5118622;28;20658;-65
2022/01/13 05:13:09;;;;;;;115.65;40.58;;;;;;;;;;5120691;28;20229;-65
2022/01/13 05:15:38;;;;;;;128.43;38.97;;;;;;;;;;5118866;28;20219;-65
2022/01/13 05:18:13;;;;;;;74.00;31.10;;;;;;;;;;5116273;28;20665;-65
2022/01/13 05:20:45;;;;;;;115.00;37.33;;;;;;;;;;5116778;28;20276;-66
2022/01/13 05:23:13;;;;;;;111.20;35.53;;;;;;;;;;5117029;28;20185;-66
2022/01/13 05:25:43;;;;;;;119.22;37.90;;;;;;;;;;5116236;28;20239;-65
2022/01/13 05:28:10;;;;;;;113.40;37.25;;;;;;;;;;5118663;28;20212;-65
2022/01/13 05:30:37;;;;;;;106.00;33.70;;;;;;;;;;5116119;28;20221;-65
2022/01/13 05:33:05;;;;;;;125.75;40.45;;;;;;;;;;5119517;28;20273;-65
2022/01/13 05:35:32;;;;;;;112.15;37.55;;;;;;;;;;5119520;28;20586;-65
2022/01/13 05:38:00;;;;;;;107.13;29.95;;;;;;;;;;5115302;28;20194;-65
2022/01/13 05:40:27;;;;;;;93.93;30.70;;;;;;;;;;5115393;28;20225;-66
2022/01/13 05:42:56;;;;;;;106.68;34.67;;;;;;;;;;5115261;28;20198;-64
2022/01/13 05:45:29;;;;;;;99.18;31.92;;;;;;;;;;5115262;28;20280;-65
2022/01/13 05:47:57;;;;;;;75.70;27.70;;;;;;;;;;5115009;28;20242;-65
2022/01/13 05:50:25;;;;;;;99.13;36.08;;;;;;;;;;5114861;28;20280;-65
2022/01/13 05:52:52;;;;;;;104.47;35.03;;;;;;;;;;5114991;28;20271;-65
2022/01/13 05:55:20;;;;;;;95.38;34.38;;;;;;;;;;5115092;28;20286;-65
2022/01/13 05:57:47;;;;;;;98.93;32.75;;;;;;;;;;5115103;28;20276;-65
2022/01/13 06:00:17;;;;;;;113.45;35.78;;;;;;;;;;5114970;28;20282;-65
2022/01/13 06:02:46;;;;;;;109.63;35.30;;;;;;;;;;5115424;28;20637;-65
2022/01/13 06:05:13;;;;;;;85.43;33.05;;;;;;;;;;5115371;28;20179;-65
2022/01/13 06:07:41;;;;;;;106.05;32.88;;;;;;;;;;5114460;28;20652;-65
2022/01/13 06:10:09;;;;;;;118.13;34.30;;;;;;;;;;5114692;28;20220;-65
2022/01/13 06:12:37;;;;;;;98.95;33.40;;;;;;;;;;5114960;28;20189;-65
2022/01/13 06:15:06;;;;;;;99.50;33.97;;;;;;;;;;5114747;28;20191;-65
2022/01/13 06:17:34;;;;;;;97.65;29.80;;;;;;;;;;5115054;28;20541;-65
2022/01/13 06:20:02;;;;;;;114.88;37.72;;;;;;;;;;5114821;28;20235;-65
2022/01/13 06:22:29;;;;;;;103.70;34.45;;;;;;;;;;5114409;28;20222;-65
2022/01/13 06:24:56;;;;;;;99.75;36.53;;;;;;;;;;5114779;28;20201;-65
2022/01/13 06:27:24;;;;;;;89.55;33.20;;;;;;;;;;5114509;28;20225;-65
2022/01/13 06:29:52;;;;;;;105.05;36.10;;;;;;;;;;5114579;28;20208;-67
2022/01/13 06:32:19;;;;;;;53.17;25.70;;;;;;;;;;5114983;28;20562;-65
2022/01/13 06:34:48;;;;;;;92.90;32.03;;;;;;;;;;5115056;28;20221;-64
2022/01/13 06:37:15;;;;;;;70.00;29.08;;;;;;;;;;5114942;28;20281;-66
2022/01/13 06:39:43;;;;;;;124.40;38.00;;;;;;;;;;5114508;28;20744;-69
2022/01/13 06:42:10;;;;;;;114.88;38.35;;;;;;;;;;5114445;28;20221;-65
2022/01/13 06:44:38;;;;;;;101.07;33.90;;;;;;;;;;5114243;28;20515;-66
2022/01/13 06:47:05;;;;;;;116.93;36.95;;;;;;;;;;5113856;28;20224;-65
2022/01/13 06:49:33;;;;;;;90.43;26.70;;;;;;;;;;5114491;28;20246;-65
2022/01/13 06:52:01;;;;;;;116.25;36.20;;;;;;;;;;5114687;28;20248;-65
2022/01/13 06:54:29;;;;;;;82.70;27.33;;;;;;;;;;5114920;28;20225;-66
2022/01/13 06:56:56;;;;;;;103.68;34.45;;;;;;;;;;5113991;28;20271;-66
2022/01/13 06:59:23;;;;;;;127.10;38.83;;;;;;;;;;5114435;28;20277;-65
2022/01/13 07:01:51;;;;;;;107.47;34.28;;;;;;;;;;5114157;28;20392;-66
2022/01/13 07:04:18;;;;;;;106.88;37.55;;;;;;;;;;5113615;28;20262;-66
2022/01/13 07:06:46;;;;;;;109.55;36.40;;;;;;;;;;5114613;28;20297;-65
2022/01/13 07:09:17;;;;;;;106.13;37.58;;;;;;;;;;5114397;28;20297;-65
2022/01/13 07:11:44;;;;;;;133.73;41.08;;;;;;;;;;5114877;28;20179;-65
2022/01/13 07:14:11;;;;;;;83.60;33.15;;;;;;;;;;5114256;28;20228;-66
2022/01/13 07:16:39;;;;;;;119.30;35.95;;;;;;;;;;5113936;28;20229;-65
2022/01/13 07:19:06;;;;;;;111.25;39.25;;;;;;;;;;5113687;28;20279;-66
2022/01/13 07:21:34;;;;;;;99.40;35.92;;;;;;;;;;5114834;28;20280;-65
2022/01/13 07:24:02;;;;;;;102.80;34.70;;;;;;;;;;5114017;28;20357;-66
2022/01/13 07:26:30;;;;;;;113.05;33.28;;;;;;;;;;5113936;28;20281;-67
2022/01/13 07:28:58;;;;;;;118.80;40.28;;;;;;;;;;5113439;28;20305;-65
2022/01/13 07:31:25;;;;;;;114.93;35.13;;;;;;;;;;5113676;28;20212;-65
2022/01/13 07:33:52;;;;;;;100.60;28.25;;;;;;;;;;5114387;28;20224;-66
2022/01/13 07:36:20;;;;;;;112.38;38.28;;;;;;;;;;5114027;28;20280;-66
2022/01/13 07:38:47;;;;;;;112.90;37.22;;;;;;;;;;5113743;28;20228;-66
2022/01/13 07:41:14;;;;;;;113.18;36.63;;;;;;;;;;5114177;28;20220;-66
2022/01/13 07:43:47;;;;;;;108.65;39.42;;;;;;;;;;5113641;28;20283;-66
2022/01/13 07:46:15;;;;;;;117.10;37.05;;;;;;;;;;5113800;28;20555;-66
2022/01/13 07:48:42;;;;;;;105.93;35.60;;;;;;;;;;5113892;28;20303;-66
2022/01/13 07:51:09;;;;;;;101.53;35.90;;;;;;;;;;5113849;28;20238;-65
2022/01/13 07:53:36;;;;;;;121.00;37.70;;;;;;;;;;5113785;28;20199;-67
2022/01/13 07:56:04;;;;;;;134.80;39.03;;;;;;;;;;5113792;28;20598;-66
2022/01/13 07:58:33;;;;;;;72.80;29.33;;;;;;;;;;5113565;28;20285;-66
2022/01/13 08:01:02;;;;;;;111.38;37.03;;;;;;;;;;5113481;28;20650;-66
2022/01/13 08:03:29;;;;;;;107.65;36.70;;;;;;;;;;5117327;28;20248;-65
2022/01/13 08:05:58;;;;;;;124.75;38.35;;;;;;;;;;5117493;28;20225;-66
2022/01/13 08:08:25;;;;;;;121.63;39.13;;;;;;;;;;5117470;28;20281;-65
2022/01/13 08:10:52;;;;;;;69.95;28.33;;;;;;;;;;5117409;28;20194;-66
2022/01/13 08:13:20;;;;;;;84.55;32.13;;;;;;;;;;5117385;28;20235;-66
2022/01/13 08:15:54;;;;;;;103.57;34.63;;;;;;;;;;5117631;28;20189;-66
2022/01/13 08:21:07;;;;;;;101.53;34.58;;;;;;;;;;5117428;28;20182;-66
2022/01/13 08:23:34;;;;;;;102.57;36.25;;;;;;;;;;5117547;28;20221;-65
2022/01/13 08:26:01;;;;;;;125.75;37.97;;;;;;;;;;5117605;28;20446;-66
2022/01/13 08:28:30;;;;;;;109.57;37.05;;;;;;;;;;5117345;28;20225;-66
2022/01/13 08:30:57;;;;;;;122.82;37.90;;;;;;;;;;5117381;28;20237;-66
2022/01/13 08:33:26;;;;;;;107.80;35.65;;;;;;;;;;5117222;28;20289;-65
2022/01/13 08:35:54;;;;;;;93.82;30.63;;;;;;;;;;5117053;28;20304;-65
2022/01/13 08:38:23;;;;;;;111.35;35.38;;;;;;;;;;5117439;28;20251;-65
2022/01/13 08:40:53;;;;;;;128.77;38.08;;;;;;;;;;5117808;28;20185;-66
2022/01/13 08:43:21;;;;;;;100.05;35.08;;;;;;;;;;5116762;28;20193;-65
2022/01/13 08:45:48;;;;;;;92.90;35.15;;;;;;;;;;5116640;28;20247;-65
2022/01/13 08:48:15;;;;;;;134.13;36.58;;;;;;;;;;5117010;28;20237;-66
2022/01/13 08:50:44;;;;;;;86.10;28.60;;;;;;;;;;5117096;28;20309;-65
2022/01/13 08:53:11;;;;;;;161.35;40.75;;;;;;;;;;5116847;28;20226;-65
2022/01/13 08:55:39;;;;;;;94.80;32.10;;;;;;;;;;5116402;28;20200;-66
2022/01/13 08:58:06;;;;;;;98.55;32.47;;;;;;;;;;5116906;28;20240;-65
2022/01/13 09:00:36;;;;;;;97.90;32.90;;;;;;;;;;5116488;28;20252;-65
2022/01/13 09:03:06;;;;;;;107.00;33.65;;;;;;;;;;5116645;28;20659;-66
2022/01/13 09:05:34;;;;;;;93.53;30.77;;;;;;;;;;5116741;28;20281;-65
2022/01/13 09:08:03;;;;;;;121.82;37.08;;;;;;;;;;5116639;28;20190;-66
2022/01/13 09:10:31;;;;;;;96.45;35.85;;;;;;;;;;5116434;28;20677;-66
2022/01/13 09:12:58;;;;;;;106.22;36.75;;;;;;;;;;5115489;28;20216;-66
2022/01/13 09:15:33;;;;;;;113.25;36.22;;;;;;;;;;5116238;28;20278;-65
2022/01/13 09:18:08;;;;;;;111.95;37.92;;;;;;;;;;5116767;28;20182;-66
2022/01/13 09:20:35;;;;;;;86.95;30.00;;;;;;;;;;5116785;28;20187;-65
2022/01/13 09:23:04;;;;;;;108.18;36.10;;;;;;;;;;5116170;28;20236;-65
2022/01/13 09:25:31;;;;;;;97.68;32.35;;;;;;;;;;5116320;28;20228;-66
2022/01/13 09:27:59;;;;;;;107.05;36.20;;;;;;;;;;5115972;28;20249;-65
2022/01/13 09:30:26;;;;;;;124.75;36.50;;;;;;;;;;5116301;28;20301;-65
2022/01/13 09:32:53;;;;;;;113.28;37.28;;;;;;;;;;5116208;28;20231;-65
2022/01/13 09:35:21;;;;;;;119.25;37.15;;;;;;;;;;5116171;28;20286;-66
2022/01/13 09:37:48;;;;;;;78.82;29.33;;;;;;;;;;5116039;28;20280;-66
2022/01/13 09:40:17;;;;;;;120.25;36.85;;;;;;;;;;5119625;28;20190;-66
2022/01/13 09:42:46;;;;;;;114.20;36.00;;;;;;;;;;5116022;28;20185;-65
2022/01/13 09:45:14;;;;;;;116.60;35.85;;;;;;;;;;5115919;28;20246;-66
2022/01/13 09:47:43;;;;;;;105.43;32.85;;;;;;;;;;5116528;28;20288;-66
2022/01/13 09:50:13;;;;;;;102.47;36.20;;;;;;;;;;5115714;28;20209;-65
2022/01/13 09:52:40;;;;;;;124.20;37.72;;;;;;;;;;5115552;28;20183;-65
2022/01/13 09:55:08;;;;;;;105.07;33.97;;;;;;;;;;5115845;28;20273;-66
2022/01/13 09:57:46;;;;;;;126.20;35.05;;;;;;;;;;5115697;28;20225;-64
2022/01/13 10:00:14;;;;;;;98.00;32.03;;;;;;;;;;5115114;28;20287;-65
2022/01/13 10:02:42;;;;;;;103.65;34.33;;;;;;;;;;5114923;28;20232;-65
2022/01/13 10:05:09;;;;;;;97.35;31.88;;;;;;;;;;5116065;28;20568;-65
2022/01/13 10:07:38;;;;;;;70.93;24.75;;;;;;;;;;5115598;28;20295;-65
2022/01/13 10:10:06;;;;;;;93.82;29.60;;;;;;;;;;5115180;28;20245;-66
2022/01/13 10:12:37;;;;;;;106.35;34.22;;;;;;;;;;5115072;28;20691;-65
2022/01/13 10:17:53;;;;;;;99.57;30.05;;;;;;;;;;5115097;28;20637;-65
2022/01/13 10:20:21;;;;;;;85.18;32.55;;;;;;;;;;5115356;28;20610;-66
2022/01/13 10:22:49;;;;;;;100.30;35.70;;;;;;;;;;5115783;28;20190;-65
2022/01/13 10:25:26;;;;;;;89.63;31.05;;;;;;;;;;5114862;28;20284;-66
2022/01/13 10:27:54;;;;;;;103.30;32.90;;;;;;;;;;5115040;28;20232;-65
2022/01/13 10:30:25;;;;;;;108.70;34.83;;;;;;;;;;5115005;28;20250;-65
2022/01/13 10:32:53;;;;;;;98.47;29.63;;;;;;;;;;5114630;28;20185;-65
2022/01/13 10:35:21;;;;;;;85.55;30.80;;;;;;;;;;5114998;28;20221;-66
2022/01/13 10:37:50;;;;;;;92.72;32.10;;;;;;;;;;5114635;28;20191;-65
2022/01/13 10:40:21;;;;;;;80.80;27.95;;;;;;;;;;5114924;28;20198;-66
2022/01/13 10:43:09;;;;;;;98.25;31.13;;;;;;;;;;5114565;28;20221;-65
2022/01/13 10:45:45;;;;;;;77.63;29.67;;;;;;;;;;5114591;28;20189;-65
2022/01/13 10:48:14;;;;;;;72.53;27.52;;;;;;;;;;5115236;28;20509;-66
2022/01/13 10:50:43;;;;;;;72.60;25.73;;;;;;;;;;5114354;28;20210;-66
2022/01/13 10:53:12;;;;;;;72.28;27.65;;;;;;;;;;5114723;28;20196;-66
2022/01/13 10:55:41;;;;;;;80.25;27.30;;;;;;;;;;5114288;28;20281;-66
2022/01/13 10:58:08;;;;;;;78.18;30.13;;;;;;;;;;5114201;28;20277;-66
2022/01/13 11:00:36;;;;;;;51.90;19.70;;;;;;;;;;5114182;28;20279;-66
2022/01/13 11:03:10;;;;;;;61.75;23.67;;;;;;;;;;5114118;28;20256;-66
2022/01/13 11:05:38;;;;;;;69.75;27.13;;;;;;;;;;5114134;28;20313;-65
2022/01/13 11:08:07;;;;;;;78.60;26.52;;;;;;;;;;5114926;28;20189;-65
2022/01/13 11:10:34;;;;;;;92.10;30.50;;;;;;;;;;5114226;28;20271;-66
2022/01/13 11:13:04;;;;;;;88.93;28.95;;;;;;;;;;5114245;28;20227;-65
2022/01/13 11:15:31;;;;;;;87.38;30.05;;;;;;;;;;5114548;28;20197;-65
2022/01/13 11:18:00;;;;;;;85.82;31.92;;;;;;;;;;5113952;28;20193;-65
2022/01/13 11:20:29;;;;;;;73.90;26.25;;;;;;;;;;5114299;28;20254;-65
2022/01/13 11:22:58;;;;;;;88.68;31.58;;;;;;;;;;5113862;28;20248;-65
2022/01/13 11:25:27;;;;;;;91.90;30.45;;;;;;;;;;5114389;28;20189;-66
2022/01/13 11:27:54;;;;;;;84.32;29.80;;;;;;;;;;5113823;28;20201;-66
2022/01/13 11:30:23;;;;;;;84.28;26.85;;;;;;;;;;5114406;28;20738;-65
2022/01/13 11:32:51;;;;;;;88.03;31.80;;;;;;;;;;5114162;28;20199;-66
2022/01/13 11:35:22;;;;;;;75.85;27.08;;;;;;;;;;5114344;28;20197;-65
2022/01/13 11:37:51;;;;;;;78.95;26.95;;;;;;;;;;5113863;28;20537;-65
2022/01/13 11:40:35;;;;;;;88.43;30.25;;;;;;;;;;5114304;28;20193;-66
2022/01/13 11:43:03;;;;;;;96.45;31.38;;;;;;;;;;5113575;28;20191;-66
2022/01/13 11:45:30;;;;;;;92.68;32.20;;;;;;;;;;5113857;28;20196;-65
2022/01/13 11:48:11;;;;;;;82.38;27.80;;;;;;;;;;5114512;28;20286;-66
2022/01/13 11:50:45;;;;;;;85.45;27.10;;;;;;;;;;5113501;28;20254;-66
2022/01/13 11:53:21;;;;;;;81.95;27.58;;;;;;;;;;5114255;28;20181;-66
2022/01/13 11:55:52;;;;;;;71.85;25.98;;;;;;;;;;5113718;28;20193;-66
2022/01/13 11:58:21;;;;;;;92.22;28.27;;;;;;;;;;5113959;28;20296;-66
2022/01/13 12:01:10;;;;;;;88.90;30.23;;;;;;;;;;5113953;28;20251;-66
2022/01/13 12:03:37;;;;;;;84.32;27.58;;;;;;;;;;5113693;28;20230;-66
2022/01/13 12:06:16;;;;;;;96.32;30.90;;;;;;;;;;5113446;28;20205;-65
2022/01/13 12:08:46;;;;;;;73.95;27.60;;;;;;;;;;5113974;28;20184;-66
2022/01/13 12:11:36;;;;;;;95.22;31.42;;;;;;;;;;5113351;28;20235;-66
2022/01/13 12:14:03;;;;;;;98.43;33.78;;;;;;;;;;5113746;28;20186;-65
2022/01/13 12:16:49;;;;;;;100.25;33.63;;;;;;;;;;5113362;28;20189;-66
2022/01/13 12:19:27;;;;;;;102.35;33.67;;;;;;;;;;5113710;28;20233;-66
2022/01/13 12:22:03;;;;;;;75.30;28.48;;;;;;;;;;5113909;28;20182;-66
2022/01/13 12:24:46;;;;;;;83.43;29.58;;;;;;;;;;5113404;28;20178;-66
2022/01/13 12:27:13;;;;;;;92.18;32.65;;;;;;;;;;5114011;28;20220;-66
2022/01/13 12:29:45;;;;;;;103.63;32.80;;;;;;;;;;5113548;28;20191;-66
2022/01/13 12:32:17;;;;;;;80.47;28.70;;;;;;;;;;5113521;28;20227;-65
2022/01/13 12:34:51;;;;;;;82.53;27.20;;;;;;;;;;5113541;28;20181;-66
2022/01/13 12:37:23;;;;;;;87.55;26.67;;;;;;;;;;5113446;28;20221;-66
2022/01/13 12:39:55;;;;;;;78.00;26.83;;;;;;;;;;5113234;28;20193;-66
2022/01/13 12:42:25;;;;;;;79.18;30.73;;;;;;;;;;5113364;28;20186;-65
2022/01/13 12:47:37;;;;;;;74.57;29.67;;;;;;;;;;5114534;28;20204;-66
2022/01/13 12:50:13;;;;;;;100.03;32.08;;;;;;;;;;5117367;28;20310;-66
2022/01/13 12:52:40;;;;;;;95.45;31.23;;;;;;;;;;5117201;28;20288;-66
2022/01/13 12:55:09;;;;;;;88.60;35.20;;;;;;;;;;5116711;28;20280;-66
2022/01/13 12:57:36;;;;;;;94.07;33.40;;;;;;;;;;5117134;28;20221;-66
2022/01/13 13:00:04;;;;;;;76.57;29.23;;;;;;;;;;5116559;28;20281;-66
2022/01/13 13:02:32;;;;;;;78.45;29.52;;;;;;;;;;5116631;28;20294;-66
2022/01/13 13:04:59;;;;;;;85.10;26.48;;;;;;;;;;5116450;28;20636;-66
2022/01/13 13:07:26;;;;;;;66.07;26.15;;;;;;;;;;5116677;28;20198;-66
2022/01/13 13:10:03;;;;;;;40.17;19.00;;;;;;;;;;5117077;28;20601;-65
2022/01/13 13:12:35;;;;;;;61.92;24.40;;;;;;;;;;5116855;28;20174;-65
2022/01/13 13:17:49;;;;;;;87.90;32.53;;;;;;;;;;5116340;28;20178;-65
2022/01/13 13:20:24;;;;;;;81.10;29.90;;;;;;;;;;5116634;28;20202;-65
2022/01/13 13:22:53;;;;;;;91.05;33.85;;;;;;;;;;5116809;28;20185;-67
2022/01/13 13:25:27;;;;;;;74.93;30.75;;;;;;;;;;5116384;28;20191;-65
2022/01/13 13:27:55;;;;;;;103.28;35.65;;;;;;;;;;5116673;28;20217;-66
2022/01/13 13:30:23;;;;;;;92.00;34.90;;;;;;;;;;5116199;28;20300;-66
2022/01/13 13:32:51;;;;;;;101.72;35.33;;;;;;;;;;5116294;28;20191;-66
2022/01/13 13:35:18;;;;;;;106.32;36.92;;;;;;;;;;5116024;28;20193;-66
2022/01/13 13:37:46;;;;;;;122.93;40.13;;;;;;;;;;5115101;28;20666;-66
2022/01/13 13:40:21;;;;;;;115.25;39.92;;;;;;;;;;5115048;28;20696;-66
2022/01/13 13:43:01;;;;;;;78.47;28.45;;;;;;;;;;5115195;28;20189;-66
2022/01/13 13:45:28;;;;;;;140.70;41.30;;;;;;;;;;5115194;28;20524;-66
2022/01/13 13:47:56;;;;;;;135.52;42.40;;;;;;;;;;5114839;28;20236;-67
2022/01/13 13:50:24;;;;;;;130.32;43.17;;;;;;;;;;5115112;28;20553;-66
2022/01/13 13:53:05;;;;;;;124.22;38.50;;;;;;;;;;5114643;28;20277;-66
2022/01/13 13:55:33;;;;;;;121.10;39.92;;;;;;;;;;5115114;28;20623;-67
2022/01/13 13:58:01;;;;;;;114.30;36.60;;;;;;;;;;5114708;28;20231;-67
2022/01/13 14:00:29;;;;;;;115.80;40.45;;;;;;;;;;5114377;28;20248;-66
2022/01/13 14:02:57;;;;;;;112.13;41.42;;;;;;;;;;5114409;28;20220;-66
2022/01/13 14:05:37;;;;;;;109.13;38.90;;;;;;;;;;5114774;28;20173;-66
2022/01/13 14:08:08;;;;;;;106.72;35.17;;;;;;;;;;5115194;28;20593;-66
2022/01/13 14:10:36;;;;;;;96.47;35.72;;;;;;;;;;5114697;28;20203;-67
2022/01/13 14:13:06;;;;;;;116.60;39.45;;;;;;;;;;5114825;28;20192;-67
2022/01/13 14:15:34;;;;;;;111.82;40.47;;;;;;;;;;5114887;28;20281;-66
2022/01/13 14:18:20;;;;;;;104.57;35.97;;;;;;;;;;5114454;28;20224;-67
2022/01/13 14:20:57;;;;;;;94.10;35.95;;;;;;;;;;5114306;28;20224;-66
2022/01/13 14:23:25;;;;;;;109.28;36.13;;;;;;;;;;5114904;28;20647;-66
2022/01/13 14:25:54;;;;;;;111.78;37.92;;;;;;;;;;5114427;28;20687;-65
2022/01/13 14:28:26;;;;;;;119.72;38.95;;;;;;;;;;5114197;28;20190;-67
2022/01/13 14:31:01;;;;;;;122.35;39.97;;;;;;;;;;5114018;28;20747;-66
2022/01/13 14:33:29;;;;;;;114.00;45.45;;;;;;;;;;5114362;28;20195;-66
2022/01/13 14:36:04;;;;;;;121.55;42.53;;;;;;;;;;5114148;28;20193;-67
2022/01/13 14:38:41;;;;;;;109.82;40.83;;;;;;;;;;5114431;28;20218;-66
2022/01/13 14:41:09;;;;;;;107.90;37.78;;;;;;;;;;5115248;28;20271;-66